Time,TemperatureF,DewpointF,PressureIn,WindDirection,WindDirectionDegrees,WindSpeedMPH,WindSpeedGustMPH,Humidity,HourlyPrecipIn,Conditions,Clouds,dailyrainin,SoftwareType,DateUTC
2013-05-05 00:00:00,49.2,36.3,30.22,SW,228,0.0,0.0,61,0.00,,,0.00,Wunderground v.1.15,2013-05-05 04:00:00,
2013-05-05 00:10:00,47.9,35.9,30.21,SW,227,0.0,0.0,63,0.00,,,0.00,Wunderground v.1.15,2013-05-05 04:10:00,
2013-05-05 00:20:00,47.4,35.8,30.21,SW,228,0.0,0.0,64,0.00,,,0.00,Wunderground v.1.15,2013-05-05 04:20:00,
2013-05-05 00:30:00,47.0,35.4,30.21,SW,228,0.0,0.0,64,0.00,,,0.00,Wunderground v.1.15,2013-05-05 04:30:00,
2013-05-05 00:40:00,46.5,35.4,30.22,SW,228,0.0,0.0,65,0.00,,,0.00,Wunderground v.1.15,2013-05-05 04:40:00,
2013-05-05 00:50:00,46.4,34.9,30.21,SW,228,0.0,0.0,64,0.00,,,0.00,Wunderground v.1.15,2013-05-05 04:50:00,
2013-05-05 01:00:00,46.4,34.5,30.21,SW,228,0.0,0.0,63,0.00,,,0.00,Wunderground v.1.15,2013-05-05 05:00:00,
2013-05-05 01:10:00,46.4,34.5,30.21,SW,228,0.0,0.0,63,0.00,,,0.00,Wunderground v.1.15,2013-05-05 05:10:00,
2013-05-05 01:20:00,46.1,35.0,30.21,SW,228,0.0,0.0,65,0.00,,,0.00,Wunderground v.1.15,2013-05-05 05:20:00,
2013-05-05 01:30:00,45.5,34.0,30.20,SW,227,0.0,0.0,64,0.00,,,0.00,Wunderground v.1.15,2013-05-05 05:30:00,
2013-05-05 01:40:00,45.2,34.1,30.20,SW,228,0.0,0.0,65,0.00,,,0.00,Wunderground v.1.15,2013-05-05 05:40:00,
2013-05-05 01:50:00,45.1,34.0,30.20,SW,228,0.0,0.0,65,0.00,,,0.00,Wunderground v.1.15,2013-05-05 05:50:00,
2013-05-05 02:00:00,45.0,33.9,30.20,SW,228,0.0,0.0,65,0.00,,,0.00,Wunderground v.1.15,2013-05-05 06:00:00,
2013-05-05 02:10:00,44.7,34.4,30.20,SW,227,0.0,0.0,67,0.00,,,0.00,Wunderground v.1.15,2013-05-05 06:10:00,
2013-05-05 02:20:00,44.0,34.1,30.19,SW,227,0.0,0.0,68,0.00,,,0.00,Wunderground v.1.15,2013-05-05 06:20:00,
2013-05-05 02:30:00,43.4,34.3,30.19,SW,227,0.0,0.0,70,0.00,,,0.00,Wunderground v.1.15,2013-05-05 06:30:00,
2013-05-05 02:40:00,43.0,33.9,30.19,SW,228,0.0,0.0,70,0.00,,,0.00,Wunderground v.1.15,2013-05-05 06:40:00,
2013-05-05 02:50:00,42.8,33.7,30.19,SW,228,0.0,0.0,70,0.00,,,0.00,Wunderground v.1.15,2013-05-05 06:50:00,
2013-05-05 03:00:00,42.6,33.5,30.19,SW,228,0.0,0.0,70,0.00,,,0.00,Wunderground v.1.15,2013-05-05 07:00:00,
2013-05-05 03:10:00,42.4,33.3,30.19,SW,227,0.0,0.0,70,0.00,,,0.00,Wunderground v.1.15,2013-05-05 07:10:00,
2013-05-05 03:20:00,42.3,33.2,30.19,SW,227,0.0,0.0,70,0.00,,,0.00,Wunderground v.1.15,2013-05-05 07:20:00,
2013-05-05 03:30:00,42.0,33.3,30.19,SW,227,0.0,0.0,71,0.00,,,0.00,Wunderground v.1.15,2013-05-05 07:30:00,
2013-05-05 03:40:00,41.7,33.3,30.19,SW,228,0.0,0.0,72,0.00,,,0.00,Wunderground v.1.15,2013-05-05 07:40:00,
2013-05-05 03:50:00,41.4,33.0,30.19,SW,227,0.0,0.0,72,0.00,,,0.00,Wunderground v.1.15,2013-05-05 07:50:00,
2013-05-05 04:00:00,40.8,32.8,30.19,SW,228,0.0,0.0,73,0.00,,,0.00,Wunderground v.1.15,2013-05-05 08:00:00,
2013-05-05 04:10:00,40.5,32.5,30.19,SW,228,0.0,0.0,73,0.00,,,0.00,Wunderground v.1.15,2013-05-05 08:10:00,
2013-05-05 04:20:00,40.1,32.5,30.19,SW,227,0.0,0.0,74,0.00,,,0.00,Wunderground v.1.15,2013-05-05 08:20:00,
2013-05-05 04:30:00,39.7,32.1,30.19,SW,227,0.0,0.0,74,0.00,,,0.00,Wunderground v.1.15,2013-05-05 08:30:00,
2013-05-05 04:40:00,39.6,32.3,30.19,SW,228,0.0,0.0,75,0.00,,,0.00,Wunderground v.1.15,2013-05-05 08:40:00,
2013-05-05 04:50:00,39.4,32.1,30.20,SW,228,0.0,0.0,75,0.00,,,0.00,Wunderground v.1.15,2013-05-05 08:50:00,
2013-05-05 05:00:00,39.2,32.3,30.19,SW,227,0.0,0.0,76,0.00,,,0.00,Wunderground v.1.15,2013-05-05 09:00:00,
2013-05-05 05:10:00,39.5,32.9,30.19,SW,228,0.0,0.0,77,0.00,,,0.00,Wunderground v.1.15,2013-05-05 09:10:00,
2013-05-05 05:20:00,39.7,32.8,30.20,SW,228,0.0,0.0,76,0.00,,,0.00,Wunderground v.1.15,2013-05-05 09:20:00,
2013-05-05 05:30:00,39.7,33.1,30.20,SW,228,0.0,0.0,77,0.00,,,0.00,Wunderground v.1.15,2013-05-05 09:30:00,
2013-05-05 05:40:00,39.8,33.5,30.20,SW,228,0.0,0.0,78,0.00,,,0.00,Wunderground v.1.15,2013-05-05 09:40:00,
2013-05-05 05:50:00,40.2,34.2,30.20,SW,228,0.0,0.0,79,0.00,,,0.00,Wunderground v.1.15,2013-05-05 09:50:00,
2013-05-05 06:00:00,40.7,34.7,30.20,SW,228,0.0,0.0,79,0.00,,,0.00,Wunderground v.1.15,2013-05-05 10:00:00,
2013-05-05 06:10:00,41.5,35.2,30.20,SW,228,0.0,0.0,78,0.00,,,0.00,Wunderground v.1.15,2013-05-05 10:10:00,
2013-05-05 06:20:00,43.1,36.7,30.20,SW,228,0.0,0.0,78,0.00,,,0.00,Wunderground v.1.15,2013-05-05 10:20:00,
2013-05-05 06:30:00,45.0,37.9,30.20,SW,227,0.0,0.0,76,0.00,,,0.00,Wunderground v.1.15,2013-05-05 10:30:00,
2013-05-05 06:40:00,46.0,37.8,30.20,SW,228,0.0,0.0,73,0.00,,,0.00,Wunderground v.1.15,2013-05-05 10:40:00,
2013-05-05 06:50:00,46.5,38.0,30.20,SW,218,0.0,0.0,72,0.00,,,0.00,Wunderground v.1.15,2013-05-05 10:50:00,
2013-05-05 07:00:00,47.2,38.3,30.20,SW,234,0.0,0.0,71,0.00,,,0.00,Wunderground v.1.15,2013-05-05 11:00:00,
2013-05-05 07:10:00,47.6,37.9,30.20,SE,134,0.0,0.0,69,0.00,,,0.00,Wunderground v.1.15,2013-05-05 11:10:00,
2013-05-05 07:20:00,47.8,38.1,30.20,SSE,148,0.0,0.0,69,0.00,,,0.00,Wunderground v.1.15,2013-05-05 11:20:00,
2013-05-05 07:30:00,48.5,38.4,30.20,South,180,0.0,0.0,68,0.00,,,0.00,Wunderground v.1.15,2013-05-05 11:30:00,
2013-05-05 07:40:00,49.4,39.7,30.20,South,175,0.0,0.0,69,0.00,,,0.00,Wunderground v.1.15,2013-05-05 11:40:00,
2013-05-05 07:50:00,50.8,39.1,30.20,South,178,0.0,0.0,64,0.00,,,0.00,Wunderground v.1.15,2013-05-05 11:50:00,
2013-05-05 08:00:00,51.4,39.2,30.20,SSW,206,0.0,4.0,63,0.00,,,0.00,Wunderground v.1.15,2013-05-05 12:00:00,
2013-05-05 08:10:00,52.5,39.4,30.20,SSE,165,0.0,0.0,61,0.00,,,0.00,Wunderground v.1.15,2013-05-05 12:10:00,
2013-05-05 08:20:00,53.3,39.8,30.20,SSE,168,0.0,1.0,60,0.00,,,0.00,Wunderground v.1.15,2013-05-05 12:20:00,
2013-05-05 08:30:00,54.3,39.8,30.20,SSW,200,1.0,1.0,58,0.00,,,0.00,Wunderground v.1.15,2013-05-05 12:30:00,
2013-05-05 08:40:00,55.9,40.9,30.20,SE,144,0.0,2.0,57,0.00,,,0.00,Wunderground v.1.15,2013-05-05 12:40:00,
2013-05-05 08:50:00,57.0,40.5,30.20,SSW,200,0.0,0.0,54,0.00,,,0.00,Wunderground v.1.15,2013-05-05 12:50:00,
2013-05-05 09:00:00,57.9,40.9,30.19,South,172,1.0,1.0,53,0.00,,,0.00,Wunderground v.1.15,2013-05-05 13:00:00,
2013-05-05 09:10:00,59.0,39.9,30.19,SW,234,1.0,1.0,49,0.00,,,0.00,Wunderground v.1.15,2013-05-05 13:10:00,
2013-05-05 09:20:00,59.8,40.6,30.19,SSW,194,0.0,0.0,49,0.00,,,0.00,Wunderground v.1.15,2013-05-05 13:20:00,
2013-05-05 09:30:00,60.7,40.3,30.18,ESE,121,1.0,2.0,47,0.00,,,0.00,Wunderground v.1.15,2013-05-05 13:30:00,
2013-05-05 09:40:00,61.2,40.8,30.18,South,183,1.0,5.0,47,0.00,,,0.00,Wunderground v.1.15,2013-05-05 13:40:00,
2013-05-05 09:50:00,62.9,41.8,30.18,ENE,78,1.0,1.0,46,0.00,,,0.00,Wunderground v.1.15,2013-05-05 13:50:00,
2013-05-05 10:00:00,64.1,41.1,30.18,SW,225,0.0,1.0,43,0.00,,,0.00,Wunderground v.1.15,2013-05-05 14:00:00,
2013-05-05 10:10:00,65.4,41.7,30.17,NNE,13,0.0,0.0,42,0.00,,,0.00,Wunderground v.1.15,2013-05-05 14:10:00,
2013-05-05 10:20:00,66.0,42.9,30.17,SSW,204,1.0,1.0,43,0.00,,,0.00,Wunderground v.1.15,2013-05-05 14:20:00,
2013-05-05 10:30:00,66.8,43.0,30.17,South,172,1.0,1.0,42,0.00,,,0.00,Wunderground v.1.15,2013-05-05 14:30:00,
2013-05-05 10:40:00,68.0,42.8,30.16,South,178,0.0,2.0,40,0.00,,,0.00,Wunderground v.1.15,2013-05-05 14:40:00,
2013-05-05 10:50:00,69.1,42.4,30.16,SSW,211,1.0,1.0,38,0.00,,,0.00,Wunderground v.1.15,2013-05-05 14:50:00,
2013-05-05 11:00:00,70.2,42.7,30.15,SSW,203,0.0,0.0,37,0.00,,,0.00,Wunderground v.1.15,2013-05-05 15:00:00,
2013-05-05 11:10:00,71.2,42.1,30.15,SSE,164,1.0,2.0,35,0.00,,,0.00,Wunderground v.1.15,2013-05-05 15:10:00,
2013-05-05 11:20:00,71.5,43.1,30.15,South,173,1.0,1.0,36,0.00,,,0.00,Wunderground v.1.15,2013-05-05 15:20:00,
2013-05-05 11:30:00,72.5,43.3,30.15,WSW,250,1.0,1.0,35,0.00,,,0.00,Wunderground v.1.15,2013-05-05 15:30:00,
2013-05-05 11:40:00,73.3,43.2,30.14,WSW,240,0.0,0.0,34,0.00,,,0.00,Wunderground v.1.15,2013-05-05 15:40:00,
2013-05-05 11:50:00,73.5,45.6,30.14,SSW,207,2.0,2.0,37,0.00,,,0.00,Wunderground v.1.15,2013-05-05 15:50:00,
2013-05-05 12:00:00,74.7,42.0,30.13,SW,225,3.0,3.0,31,0.00,,,0.00,Wunderground v.1.15,2013-05-05 16:00:00,
2013-05-05 12:10:00,74.8,43.0,30.12,South,179,2.0,2.0,32,0.00,,,0.00,Wunderground v.1.15,2013-05-05 16:10:00,
2013-05-05 12:20:00,75.6,41.1,30.13,South,177,2.0,2.0,29,0.00,,,0.00,Wunderground v.1.15,2013-05-05 16:20:00,
2013-05-05 12:30:00,76.6,42.0,30.12,WSW,237,0.0,0.0,29,0.00,,,0.00,Wunderground v.1.15,2013-05-05 16:30:00,
2013-05-05 12:40:00,76.7,43.8,30.11,WSW,257,1.0,1.0,31,0.00,,,0.00,Wunderground v.1.15,2013-05-05 16:40:00,
2013-05-05 12:50:00,77.5,42.7,30.11,SW,216,1.0,3.0,29,0.00,,,0.00,Wunderground v.1.15,2013-05-05 16:50:00,
2013-05-05 13:00:00,77.2,43.4,30.11,SW,229,2.0,2.0,30,0.00,,,0.00,Wunderground v.1.15,2013-05-05 17:00:00,
2013-05-05 13:10:00,77.6,41.9,30.11,WSW,252,1.0,1.0,28,0.00,,,0.00,Wunderground v.1.15,2013-05-05 17:10:00,
2013-05-05 13:20:00,77.2,41.6,30.10,North,360,2.0,2.0,28,0.00,,,0.00,Wunderground v.1.15,2013-05-05 17:20:00,
2013-05-05 13:30:00,78.1,39.4,30.10,SSW,213,2.0,7.0,25,0.00,,,0.00,Wunderground v.1.15,2013-05-05 17:30:00,
2013-05-05 13:40:00,78.4,39.7,30.10,SE,145,3.0,4.0,25,0.00,,,0.00,Wunderground v.1.15,2013-05-05 17:40:00,
2013-05-05 13:50:00,78.7,38.9,30.10,North,9,1.0,4.0,24,0.00,,,0.00,Wunderground v.1.15,2013-05-05 17:50:00,
2013-05-05 14:00:00,79.4,40.5,30.09,SSE,147,1.0,1.0,25,0.00,,,0.00,Wunderground v.1.15,2013-05-05 18:00:00,
2013-05-05 14:10:00,79.6,42.7,30.09,WSW,253,2.0,2.0,27,0.00,,,0.00,Wunderground v.1.15,2013-05-05 18:10:00,
2013-05-05 14:20:00,80.4,40.3,30.09,SSW,198,2.0,5.0,24,0.00,,,0.00,Wunderground v.1.15,2013-05-05 18:20:00,
2013-05-05 14:30:00,79.8,39.8,30.09,SW,219,3.0,3.0,24,0.00,,,0.00,Wunderground v.1.15,2013-05-05 18:30:00,
2013-05-05 14:40:00,78.9,39.0,30.08,SW,233,3.0,7.0,24,0.00,,,0.00,Wunderground v.1.15,2013-05-05 18:40:00,
2013-05-05 14:50:00,80.0,42.0,30.08,SW,226,2.0,6.0,26,0.00,,,0.00,Wunderground v.1.15,2013-05-05 18:50:00,
2013-05-05 15:00:00,79.4,38.4,30.08,SSW,211,6.0,6.0,23,0.00,,,0.00,Wunderground v.1.15,2013-05-05 19:00:00,
2013-05-05 15:10:00,78.6,38.8,30.08,NW,316,3.0,3.0,24,0.00,,,0.00,Wunderground v.1.15,2013-05-05 19:10:00,
2013-05-05 15:20:00,79.4,38.4,30.08,North,11,1.0,1.0,23,0.00,,,0.00,Wunderground v.1.15,2013-05-05 19:20:00,
2013-05-05 15:30:00,80.0,41.0,30.07,SW,236,1.0,1.0,25,0.00,,,0.00,Wunderground v.1.15,2013-05-05 19:30:00,
2013-05-05 15:40:00,80.5,39.3,30.06,East,88,0.0,0.0,23,0.00,,,0.00,Wunderground v.1.15,2013-05-05 19:40:00,
2013-05-05 15:50:00,80.0,37.7,30.06,NNW,334,2.0,4.0,22,0.00,,,0.00,Wunderground v.1.15,2013-05-05 19:50:00,
2013-05-05 16:00:00,80.6,38.2,30.06,NE,53,0.0,0.0,22,0.00,,,0.00,Wunderground v.1.15,2013-05-05 20:00:00,
2013-05-05 16:10:00,80.0,38.9,30.06,WSW,241,2.0,6.0,23,0.00,,,0.00,Wunderground v.1.15,2013-05-05 20:10:00,
2013-05-05 16:20:00,80.0,37.7,30.06,SSE,155,4.0,4.0,22,0.00,,,0.00,Wunderground v.1.15,2013-05-05 20:20:00,
2013-05-05 16:30:00,80.7,39.4,30.06,SE,142,0.0,0.0,23,0.00,,,0.00,Wunderground v.1.15,2013-05-05 20:30:00,
2013-05-05 16:40:00,81.0,39.7,30.05,SSW,213,1.0,1.0,23,0.00,,,0.00,Wunderground v.1.15,2013-05-05 20:40:00,
2013-05-05 16:50:00,81.1,40.9,30.05,South,191,2.0,2.0,24,0.00,,,0.00,Wunderground v.1.15,2013-05-05 20:50:00,
2013-05-05 17:00:00,81.2,38.7,30.05,WSW,242,2.0,2.0,22,0.00,,,0.00,Wunderground v.1.15,2013-05-05 21:00:00,
2013-05-05 17:10:00,81.6,41.3,30.04,East,86,0.0,2.0,24,0.00,,,0.00,Wunderground v.1.15,2013-05-05 21:10:00,
2013-05-05 17:20:00,81.1,37.5,30.05,West,273,3.0,3.0,21,0.00,,,0.00,Wunderground v.1.15,2013-05-05 21:20:00,
2013-05-05 17:30:00,80.4,39.2,30.04,WSW,246,3.0,4.0,23,0.00,,,0.00,Wunderground v.1.15,2013-05-05 21:30:00,
2013-05-05 17:40:00,80.3,39.1,30.05,SW,229,4.0,5.0,23,0.00,,,0.00,Wunderground v.1.15,2013-05-05 21:40:00,
2013-05-05 17:50:00,80.1,40.0,30.05,WSW,245,2.0,2.0,24,0.00,,,0.00,Wunderground v.1.15,2013-05-05 21:50:00,
2013-05-05 18:00:00,79.0,40.2,30.05,SW,232,0.0,0.0,25,0.00,,,0.00,Wunderground v.1.15,2013-05-05 22:00:00,
2013-05-05 18:10:00,77.7,40.1,30.05,SW,221,1.0,1.0,26,0.00,,,0.00,Wunderground v.1.15,2013-05-05 22:10:00,
2013-05-05 18:20:00,76.6,41.0,30.05,SW,226,0.0,0.0,28,0.00,,,0.00,Wunderground v.1.15,2013-05-05 22:20:00,
2013-05-05 18:30:00,75.4,41.8,30.05,SW,223,0.0,0.0,30,0.00,,,0.00,Wunderground v.1.15,2013-05-05 22:30:00,
2013-05-05 18:40:00,74.2,42.4,30.05,SW,224,0.0,0.0,32,0.00,,,0.00,Wunderground v.1.15,2013-05-05 22:40:00,
2013-05-05 18:50:00,73.1,43.1,30.05,SW,224,0.0,0.0,34,0.00,,,0.00,Wunderground v.1.15,2013-05-05 22:50:00,
2013-05-05 19:00:00,72.0,42.1,30.05,SW,225,0.0,0.0,34,0.00,,,0.00,Wunderground v.1.15,2013-05-05 23:00:00,
2013-05-05 19:10:00,71.0,42.0,30.05,SW,225,0.0,0.0,35,0.00,,,0.00,Wunderground v.1.15,2013-05-05 23:10:00,
2013-05-05 19:20:00,70.1,42.6,30.05,SW,225,0.0,0.0,37,0.00,,,0.00,Wunderground v.1.15,2013-05-05 23:20:00,
2013-05-05 19:30:00,69.4,42.0,30.05,SW,225,0.0,0.0,37,0.00,,,0.00,Wunderground v.1.15,2013-05-05 23:30:00,
2013-05-05 19:40:00,68.9,42.2,30.05,SW,225,0.0,0.0,38,0.00,,,0.00,Wunderground v.1.15,2013-05-05 23:40:00,
2013-05-05 19:50:00,68.4,42.5,30.06,SW,225,0.0,0.0,39,0.00,,,0.00,Wunderground v.1.15,2013-05-05 23:50:00,
2013-05-05 20:00:00,67.9,42.0,30.06,SW,225,0.0,0.0,39,0.00,,,0.00,Wunderground v.1.15,2013-05-06 00:00:00,
2013-05-05 20:10:00,67.4,42.2,30.06,SW,225,0.0,0.0,40,0.00,,,0.00,Wunderground v.1.15,2013-05-06 00:10:00,
2013-05-05 20:20:00,67.0,41.2,30.06,West,272,0.0,0.0,39,0.00,,,0.00,Wunderground v.1.15,2013-05-06 00:20:00,
2013-05-05 20:30:00,67.9,40.7,30.07,WNW,302,0.0,0.0,37,0.00,,,0.00,Wunderground v.1.15,2013-05-06 00:30:00,
2013-05-05 20:40:00,68.2,40.2,30.07,WSW,254,0.0,1.0,36,0.00,,,0.00,Wunderground v.1.15,2013-05-06 00:40:00,
2013-05-05 20:50:00,67.9,41.3,30.07,SW,215,0.0,0.0,38,0.00,,,0.00,Wunderground v.1.15,2013-05-06 00:50:00,
2013-05-05 21:00:00,66.7,40.9,30.08,SW,234,0.0,0.0,39,0.00,,,0.00,Wunderground v.1.15,2013-05-06 01:00:00,
2013-05-05 21:10:00,65.1,41.4,30.09,WSW,242,0.0,0.0,42,0.00,,,0.00,Wunderground v.1.15,2013-05-06 01:10:00,
2013-05-05 21:20:00,63.7,40.8,30.09,WSW,242,0.0,0.0,43,0.00,,,0.00,Wunderground v.1.15,2013-05-06 01:20:00,
2013-05-05 21:30:00,62.8,40.5,30.09,WSW,242,0.0,0.0,44,0.00,,,0.00,Wunderground v.1.15,2013-05-06 01:30:00,
2013-05-05 21:40:00,62.5,40.3,30.09,SSW,213,0.0,3.0,44,0.00,,,0.00,Wunderground v.1.15,2013-05-06 01:40:00,
2013-05-05 21:50:00,62.8,41.1,30.09,SW,233,2.0,2.0,45,0.00,,,0.00,Wunderground v.1.15,2013-05-06 01:50:00,
2013-05-05 22:00:00,62.0,41.0,30.09,SW,233,0.0,0.0,46,0.00,,,0.00,Wunderground v.1.15,2013-05-06 02:00:00,
2013-05-05 22:10:00,61.3,40.3,30.09,SW,233,0.0,0.0,46,0.00,,,0.00,Wunderground v.1.15,2013-05-06 02:10:00,
2013-05-05 22:20:00,61.2,40.8,30.09,SW,233,0.0,0.0,47,0.00,,,0.00,Wunderground v.1.15,2013-05-06 02:20:00,
2013-05-05 22:30:00,61.1,40.1,30.09,SW,233,0.0,0.0,46,0.00,,,0.00,Wunderground v.1.15,2013-05-06 02:30:00,
2013-05-05 22:40:00,60.9,40.5,30.09,SW,234,0.0,0.0,47,0.00,,,0.00,Wunderground v.1.15,2013-05-06 02:40:00,
2013-05-05 22:50:00,60.9,40.0,30.09,SW,234,0.0,0.0,46,0.00,,,0.00,Wunderground v.1.15,2013-05-06 02:50:00,
2013-05-05 23:00:00,60.6,39.7,30.09,SW,234,0.0,0.0,46,0.00,,,0.00,Wunderground v.1.15,2013-05-06 03:00:00,
2013-05-05 23:10:00,60.4,39.5,30.09,SW,223,0.0,0.0,46,0.00,,,0.00,Wunderground v.1.15,2013-05-06 03:10:00,
2013-05-05 23:20:00,59.9,40.1,30.10,SW,223,0.0,0.0,48,0.00,,,0.00,Wunderground v.1.15,2013-05-06 03:20:00,
2013-05-05 23:30:00,59.3,39.6,30.09,SW,231,0.0,1.0,48,0.00,,,0.00,Wunderground v.1.15,2013-05-06 03:30:00,
2013-05-05 23:40:00,60.0,39.7,30.10,SW,229,1.0,1.0,47,0.00,,,0.00,Wunderground v.1.15,2013-05-06 03:40:00,
2013-05-05 23:50:00,60.0,39.1,30.10,SW,224,1.0,3.0,46,0.00,,,0.00,Wunderground v.1.15,2013-05-06 03:50:00,